Alamance, North Carolina
Current Conditions -  °F | °C
As of 6:54 AM on Monday 26 Jan 2015 (Local Time) from KBUY Reporting Station
Light Rain Light Rain  
Wind Chill: 36°   Ceiling: 4200
Heat Index: 40°   Visibility: 8mi
Dew Point: 37°   Wind: 6mph
Humidity: 89%   Direction: 130°SE
Pressure: 29.66"   Gusts: NA
Location:  36.04°N, 79.49°W
Report Text: KBUY 261154Z AUTO 13005KT 8SM -RA OVC042 04/03 A2966 RMK AO2 RAB03 SLP043 P0002 60002 70002 T00440028 10067 20044 56005
Loading
Personal Weather Stations






























Interactive Weather Map New forecast layout! Learn more

10-Day Weather Forecast

Advertisements
Track Severe Weather on mobile